This is the latest recevied weather packets stored in our database for station/object VA7NEZ. If no packets are shown the sender has not sent any weather packets the latest 10 day(s).
| Time | Temp. | Humidity | Pressure | Rain* | Wind** | Luminosity | Snow |
|---|---|---|---|---|---|---|---|
| 1777767446 | 27.22° C | 25% | 1014.9 hPa | 0 mm | - | - | - |
| 1777766855 | 27.22° C | 24% | 1015 hPa | 0 mm | - | - | - |
| 1777764691 | 27.78° C | 24% | 1015.4 hPa | 0 mm | - | - | - |
| 1777764205 | 28.89° C | 22% | 1015.4 hPa | 0 mm | - | - | - |
| 1777760326 | 36.11° C | 19% | 1016.2 hPa | 0 mm | - | - | - |
| 1777759831 | 35.56° C | 18% | 1016.3 hPa | 0 mm | - | - | - |
| 1777759276 | 33.33° C | 19% | 1016.5 hPa | 0 mm | - | - | - |
| 1777758711 | 26.67° C | 26% | 1016.6 hPa | 0 mm | - | - | - |
| 1777756601 | 23.33° C | 33% | 1017.2 hPa | 0 mm | - | - | - |
| 1777755551 | 22.78° C | 36% | 1017.5 hPa | 0 mm | - | - | - |
| 1777754451 | 22.22° C | 36% | 1017.8 hPa | 0 mm | - | - | - |
| 1777753881 | 22.22° C | 35% | 1018 hPa | 0 mm | - | - | - |
| 1777752841 | 21.67° C | 36% | 1018.1 hPa | 0 mm | - | - | - |
| 1777752276 | 21.67° C | 35% | 1018 hPa | 0 mm | - | - | - |
| 1777751686 | 21.11° C | 38% | 1018.4 hPa | 0 mm | - | - | - |
| 1777751146 | 20.56° C | 39% | 1018.4 hPa | 0 mm | - | - | - |
| 1777750126 | 20.56° C | 41% | 1018.6 hPa | 0 mm | - | - | - |
| 1777749626 | 20° C | 40% | 1018.8 hPa | 0 mm | - | - | - |
| 1777749061 | 20° C | 40% | 1019 hPa | 0 mm | - | - | - |
| 1777748512 | 19.44° C | 41% | 1019.2 hPa | 0 mm | - | - | - |
| 1777746876 | 17.78° C | 45% | 1019.6 hPa | 0 mm | - | - | - |
| 1777746391 | 17.78° C | 45% | 1019.7 hPa | 0 mm | - | - | - |
| 1777745336 | 16.67° C | 48% | 1019.9 hPa | 0 mm | - | - | - |
| 1777738476 | 15° C | 54% | 1020.2 hPa | 0 mm | - | - | - |
| 1777737976 | 15° C | 54% | 1020.3 hPa | 0 mm | - | - | - |
* Rain latest hour (hover to see other rain measurements)
** Current wind speed in m/s (hover to see current wind gust speed)